Meteopozuelo

Informes METAR próximos a MeteoPozuelo

 

LEVS - Cuatro Vientos (Madrid) España
Actualización: 28/02/2021 19:00
Despejado
Despejado
 Viento del ESE
Viento: ESE 20 km/h
Temperatura: 12°C
Punto de Rocío: 4°C
Humedad: 58%
Barómetro: 1018 hPa
Resumen: Despejado
Visibility: greater than 10 km
2021/02/28 18:00 LEVS 281800Z 12011KT 080V150 CAVOK 12/04 Q1018
LEGT - Getafe (Madrid ) España
Actualización: 28/02/2021 19:00
Despejado
Despejado
 Viento del SE
Viento: SE 22 km/h
Temperatura: 12°C
Punto de Rocío: 4°C
Humedad: 58%
Barómetro: 1019 hPa
Resumen: Despejado
Visibility: greater than 10 km
2021/02/28 18:00 LEGT 281800Z 14012KT CAVOK 12/04 Q1019
 
LEMD - Barajas (Madrid) España
Actualización: 28/02/2021 19:00
Parcialmente nuboso
Parcialmente nuboso
 Viento del SE
Viento: SE 19 km/h
Temperatura: 12°C
Punto de Rocío: 4°C
Humedad: 58%
Barómetro: 1018 hPa
Clouds: Parcialmente nuboso
Visibility: 10 km
Cloud details: Parcialmente nuboso 1981 m
2021/02/28 18:00 LEMD 281800Z 13010KT 100V160 9999 SCT065 12/04 Q1018 NOSIG
LETO - Torrejon de Ardoz (Madrid) España
Actualización: 28/02/2021 19:00
Parcialmente nuboso
Parcialmente nuboso
 Viento del SSE
Viento: SSE 15 km/h
Temperatura: 11°C
Punto de Rocío: 4°C
Humedad: 62%
Barómetro: 1019 hPa
Clouds: Parcialmente nuboso
Visibility: 10 km
Cloud details: Parcialmente nuboso 1829 m
2021/02/28 18:00 LETO 281800Z 15008KT 9999 SCT060 11/04 Q1019 NOSIG
 
LECV - Colmenar Viejo (Madrid)
Actualización: 28/02/2021 19:00
Muy nuboso
Muy nuboso
 Viento del SSE
Viento: SSE 15 km/h
Temperatura: 10°C
Wind Chill: 8°C
Punto de Rocío: 3°C
Humedad: 62%
Barómetro: 1018 hPa
Clouds: Muy nuboso
Visibility: 10 km
Cloud details: Few Clouds 610 m
Muy nuboso 1067 m
2021/02/28 18:00 LECV 281800Z 15008KT 9999 FEW020 BKN035 10/03 Q1018